sensor_id;sensor_type;location;lat;lon;timestamp;temperature;humidity
78775;DHT22;68119;43.398;3.676;2023-04-03T00:01:32;11.70;58.20
78775;DHT22;68119;43.398;3.676;2023-04-03T00:04:01;11.70;58.50
78775;DHT22;68119;43.398;3.676;2023-04-03T00:06:27;11.70;58.70
78775;DHT22;68119;43.398;3.676;2023-04-03T00:08:54;11.70;58.90
78775;DHT22;68119;43.398;3.676;2023-04-03T00:11:20;11.70;58.40
78775;DHT22;68119;43.398;3.676;2023-04-03T00:13:49;11.70;58.40
78775;DHT22;68119;43.398;3.676;2023-04-03T00:16:20;11.70;58.60
78775;DHT22;68119;43.398;3.676;2023-04-03T00:18:49;11.70;58.70
78775;DHT22;68119;43.398;3.676;2023-04-03T00:21:17;11.70;58.60
78775;DHT22;68119;43.398;3.676;2023-04-03T00:23:42;11.70;58.70
78775;DHT22;68119;43.398;3.676;2023-04-03T00:26:08;11.70;58.70
78775;DHT22;68119;43.398;3.676;2023-04-03T00:28:36;11.70;58.50
78775;DHT22;68119;43.398;3.676;2023-04-03T00:31:07;11.70;58.60
78775;DHT22;68119;43.398;3.676;2023-04-03T00:33:36;11.70;58.60
78775;DHT22;68119;43.398;3.676;2023-04-03T00:36:11;11.70;58.60
78775;DHT22;68119;43.398;3.676;2023-04-03T00:38:39;11.70;58.50
78775;DHT22;68119;43.398;3.676;2023-04-03T00:41:07;11.70;58.50
78775;DHT22;68119;43.398;3.676;2023-04-03T00:43:36;11.70;58.20
78775;DHT22;68119;43.398;3.676;2023-04-03T00:46:05;11.70;58.60
78775;DHT22;68119;43.398;3.676;2023-04-03T00:48:41;11.60;58.60
78775;DHT22;68119;43.398;3.676;2023-04-03T00:51:26;11.70;58.40
78775;DHT22;68119;43.398;3.676;2023-04-03T00:53:55;11.70;58.40
78775;DHT22;68119;43.398;3.676;2023-04-03T00:56:26;11.60;58.40
78775;DHT22;68119;43.398;3.676;2023-04-03T00:59:02;11.60;58.60
78775;DHT22;68119;43.398;3.676;2023-04-03T01:01:32;11.60;58.40
78775;DHT22;68119;43.398;3.676;2023-04-03T01:04:03;11.60;58.40
78775;DHT22;68119;43.398;3.676;2023-04-03T01:06:34;11.60;58.20
78775;DHT22;68119;43.398;3.676;2023-04-03T01:09:04;11.70;58.20
78775;DHT22;68119;43.398;3.676;2023-04-03T01:11:32;11.70;58.30
78775;DHT22;68119;43.398;3.676;2023-04-03T01:13:58;11.60;58.30
78775;DHT22;68119;43.398;3.676;2023-04-03T01:16:30;11.60;58.30
78775;DHT22;68119;43.398;3.676;2023-04-03T01:19:00;11.50;58.50
78775;DHT22;68119;43.398;3.676;2023-04-03T01:24:37;11.50;58.60
78775;DHT22;68119;43.398;3.676;2023-04-03T01:27:10;11.50;58.80
78775;DHT22;68119;43.398;3.676;2023-04-03T01:29:39;11.50;58.80
78775;DHT22;68119;43.398;3.676;2023-04-03T01:32:08;11.50;59.00
78775;DHT22;68119;43.398;3.676;2023-04-03T01:34:33;11.50;58.90
78775;DHT22;68119;43.398;3.676;2023-04-03T01:37:02;11.50;59.00
78775;DHT22;68119;43.398;3.676;2023-04-03T01:39:28;11.50;59.00
78775;DHT22;68119;43.398;3.676;2023-04-03T01:41:56;11.50;59.10
78775;DHT22;68119;43.398;3.676;2023-04-03T01:44:24;11.40;59.20
78775;DHT22;68119;43.398;3.676;2023-04-03T01:46:55;11.40;59.20
78775;DHT22;68119;43.398;3.676;2023-04-03T01:49:26;11.50;58.90
78775;DHT22;68119;43.398;3.676;2023-04-03T01:51:52;11.40;59.00
78775;DHT22;68119;43.398;3.676;2023-04-03T01:54:22;11.50;59.00
78775;DHT22;68119;43.398;3.676;2023-04-03T01:56:48;11.50;58.90
78775;DHT22;68119;43.398;3.676;2023-04-03T01:59:14;11.40;58.90
78775;DHT22;68119;43.398;3.676;2023-04-03T02:01:42;11.40;59.10
78775;DHT22;68119;43.398;3.676;2023-04-03T02:04:11;11.40;59.00
78775;DHT22;68119;43.398;3.676;2023-04-03T02:06:39;11.40;59.20
78775;DHT22;68119;43.398;3.676;2023-04-03T02:09:09;11.40;58.90
78775;DHT22;68119;43.398;3.676;2023-04-03T02:11:37;11.30;58.90
78775;DHT22;68119;43.398;3.676;2023-04-03T02:14:03;11.30;59.10
78775;DHT22;68119;43.398;3.676;2023-04-03T02:16:31;11.40;59.10
78775;DHT22;68119;43.398;3.676;2023-04-03T02:18:57;11.30;59.30
78775;DHT22;68119;43.398;3.676;2023-04-03T02:21:23;11.20;59.60
78775;DHT22;68119;43.398;3.676;2023-04-03T02:23:54;11.10;59.70
78775;DHT22;68119;43.398;3.676;2023-04-03T02:26:22;11.10;59.80
78775;DHT22;68119;43.398;3.676;2023-04-03T02:28:48;11.10;59.60
78775;DHT22;68119;43.398;3.676;2023-04-03T02:31:13;11.10;59.60
78775;DHT22;68119;43.398;3.676;2023-04-03T02:33:40;11.10;59.50
78775;DHT22;68119;43.398;3.676;2023-04-03T02:36:08;11.10;59.60
78775;DHT22;68119;43.398;3.676;2023-04-03T02:38:35;11.10;59.70
78775;DHT22;68119;43.398;3.676;2023-04-03T02:41:08;11.10;59.60
78775;DHT22;68119;43.398;3.676;2023-04-03T02:43:35;11.10;59.70
78775;DHT22;68119;43.398;3.676;2023-04-03T02:46:04;11.00;59.80
78775;DHT22;68119;43.398;3.676;2023-04-03T02:48:35;11.10;60.00
78775;DHT22;68119;43.398;3.676;2023-04-03T02:51:03;11.00;60.10
78775;DHT22;68119;43.398;3.676;2023-04-03T02:53:31;10.90;60.00
78775;DHT22;68119;43.398;3.676;2023-04-03T02:55:57;10.90;60.40
78775;DHT22;68119;43.398;3.676;2023-04-03T02:58:23;10.80;60.50
78775;DHT22;68119;43.398;3.676;2023-04-03T03:00:50;10.80;60.30
78775;DHT22;68119;43.398;3.676;2023-04-03T03:03:16;10.80;60.40
78775;DHT22;68119;43.398;3.676;2023-04-03T03:05:42;10.80;60.40
78775;DHT22;68119;43.398;3.676;2023-04-03T03:08:10;10.80;60.50
78775;DHT22;68119;43.398;3.676;2023-04-03T03:10:36;10.80;60.40
78775;DHT22;68119;43.398;3.676;2023-04-03T03:13:01;10.80;60.50
78775;DHT22;68119;43.398;3.676;2023-04-03T03:15:30;10.80;60.40
78775;DHT22;68119;43.398;3.676;2023-04-03T03:17:56;10.80;60.50
78775;DHT22;68119;43.398;3.676;2023-04-03T03:20:25;10.80;60.50
78775;DHT22;68119;43.398;3.676;2023-04-03T03:22:54;10.80;60.40
78775;DHT22;68119;43.398;3.676;2023-04-03T03:25:20;10.90;60.50
78775;DHT22;68119;43.398;3.676;2023-04-03T03:27:47;10.80;60.60
78775;DHT22;68119;43.398;3.676;2023-04-03T03:30:15;10.80;60.50
78775;DHT22;68119;43.398;3.676;2023-04-03T03:32:44;10.90;60.30
78775;DHT22;68119;43.398;3.676;2023-04-03T03:35:12;10.80;60.60
78775;DHT22;68119;43.398;3.676;2023-04-03T03:37:38;10.90;60.40
78775;DHT22;68119;43.398;3.676;2023-04-03T03:40:07;10.80;60.60
78775;DHT22;68119;43.398;3.676;2023-04-03T03:42:32;10.70;60.70
78775;DHT22;68119;43.398;3.676;2023-04-03T04:34:11;10.70;60.90
78775;DHT22;68119;43.398;3.676;2023-04-03T04:36:38;10.50;61.30
78775;DHT22;68119;43.398;3.676;2023-04-03T04:39:04;10.50;61.40
78775;DHT22;68119;43.398;3.676;2023-04-03T04:41:31;10.60;61.20
78775;DHT22;68119;43.398;3.676;2023-04-03T04:44:00;10.50;61.50
78775;DHT22;68119;43.398;3.676;2023-04-03T04:46:26;10.50;61.60
78775;DHT22;68119;43.398;3.676;2023-04-03T04:48:55;10.40;61.80
78775;DHT22;68119;43.398;3.676;2023-04-03T04:51:23;10.40;61.60
78775;DHT22;68119;43.398;3.676;2023-04-03T04:53:51;10.30;62.10
78775;DHT22;68119;43.398;3.676;2023-04-03T04:56:19;10.30;62.20
78775;DHT22;68119;43.398;3.676;2023-04-03T04:58:50;10.30;62.20
78775;DHT22;68119;43.398;3.676;2023-04-03T05:01:20;10.30;62.30
78775;DHT22;68119;43.398;3.676;2023-04-03T05:03:47;10.30;62.50
78775;DHT22;68119;43.398;3.676;2023-04-03T05:06:16;10.30;62.60
78775;DHT22;68119;43.398;3.676;2023-04-03T05:08:42;10.30;62.40
78775;DHT22;68119;43.398;3.676;2023-04-03T05:11:10;10.30;62.30
78775;DHT22;68119;43.398;3.676;2023-04-03T05:16:16;10.30;62.30
78775;DHT22;68119;43.398;3.676;2023-04-03T05:18:45;10.20;62.80
78775;DHT22;68119;43.398;3.676;2023-04-03T05:21:14;10.20;62.90
78775;DHT22;68119;43.398;3.676;2023-04-03T05:23:40;10.20;63.20
78775;DHT22;68119;43.398;3.676;2023-04-03T05:26:06;10.10;63.40
78775;DHT22;68119;43.398;3.676;2023-04-03T05:28:34;10.10;63.60
78775;DHT22;68119;43.398;3.676;2023-04-03T05:31:00;10.10;63.40
78775;DHT22;68119;43.398;3.676;2023-04-03T05:33:26;10.20;63.50
78775;DHT22;68119;43.398;3.676;2023-04-03T05:35:54;10.10;63.50
78775;DHT22;68119;43.398;3.676;2023-04-03T05:38:23;10.10;63.40
78775;DHT22;68119;43.398;3.676;2023-04-03T05:43:22;10.00;63.60
78775;DHT22;68119;43.398;3.676;2023-04-03T05:48:17;10.00;64.00
78775;DHT22;68119;43.398;3.676;2023-04-03T05:50:46;10.00;63.70
78775;DHT22;68119;43.398;3.676;2023-04-03T05:53:33;10.00;63.40
78775;DHT22;68119;43.398;3.676;2023-04-03T05:56:01;10.10;63.50
78775;DHT22;68119;43.398;3.676;2023-04-03T05:58:29;10.10;63.50
78775;DHT22;68119;43.398;3.676;2023-04-03T06:01:00;10.00;63.70
78775;DHT22;68119;43.398;3.676;2023-04-03T06:03:26;10.10;63.70
78775;DHT22;68119;43.398;3.676;2023-04-03T06:08:23;10.00;63.90
78775;DHT22;68119;43.398;3.676;2023-04-03T06:10:51;10.00;64.10
78775;DHT22;68119;43.398;3.676;2023-04-03T06:13:20;10.10;64.00
78775;DHT22;68119;43.398;3.676;2023-04-03T06:18:20;10.20;63.50
78775;DHT22;68119;43.398;3.676;2023-04-03T06:20:48;10.30;63.30
78775;DHT22;68119;43.398;3.676;2023-04-03T06:23:20;10.30;63.20
78775;DHT22;68119;43.398;3.676;2023-04-03T06:33:12;10.40;62.90
78775;DHT22;68119;43.398;3.676;2023-04-03T06:35:48;10.70;62.30
78775;DHT22;68119;43.398;3.676;2023-04-03T06:48:04;10.90;61.70
78775;DHT22;68119;43.398;3.676;2023-04-03T06:50:30;10.90;61.10
78775;DHT22;68119;43.398;3.676;2023-04-03T06:52:56;11.00;60.90
78775;DHT22;68119;43.398;3.676;2023-04-03T06:55:26;11.10;60.50
78775;DHT22;68119;43.398;3.676;2023-04-03T07:00:18;11.20;59.50
78775;DHT22;68119;43.398;3.676;2023-04-03T07:02:44;11.40;58.60
78775;DHT22;68119;43.398;3.676;2023-04-03T07:05:13;11.40;58.30
78775;DHT22;68119;43.398;3.676;2023-04-03T07:07:38;11.50;58.20
78775;DHT22;68119;43.398;3.676;2023-04-03T07:10:08;11.60;57.60
78775;DHT22;68119;43.398;3.676;2023-04-03T07:12:36;11.60;57.70
78775;DHT22;68119;43.398;3.676;2023-04-03T07:15:06;11.70;57.50
78775;DHT22;68119;43.398;3.676;2023-04-03T07:17:35;11.70;57.50
78775;DHT22;68119;43.398;3.676;2023-04-03T07:20:06;11.90;56.70
78775;DHT22;68119;43.398;3.676;2023-04-03T07:22:38;11.90;56.60
78775;DHT22;68119;43.398;3.676;2023-04-03T07:25:04;12.00;56.20
78775;DHT22;68119;43.398;3.676;2023-04-03T07:27:31;12.00;56.10
78775;DHT22;68119;43.398;3.676;2023-04-03T07:29:59;12.10;55.50
78775;DHT22;68119;43.398;3.676;2023-04-03T07:32:30;12.20;55.90
78775;DHT22;68119;43.398;3.676;2023-04-03T07:34:56;12.30;55.90
78775;DHT22;68119;43.398;3.676;2023-04-03T07:37:24;12.40;55.00
78775;DHT22;68119;43.398;3.676;2023-04-03T07:39:52;12.40;55.00
78775;DHT22;68119;43.398;3.676;2023-04-03T07:42:21;12.50;55.30
78775;DHT22;68119;43.398;3.676;2023-04-03T07:44:56;12.60;55.20
78775;DHT22;68119;43.398;3.676;2023-04-03T07:47:22;12.60;54.80
78775;DHT22;68119;43.398;3.676;2023-04-03T07:49:54;12.60;54.70
78775;DHT22;68119;43.398;3.676;2023-04-03T07:52:20;12.70;54.40
78775;DHT22;68119;43.398;3.676;2023-04-03T07:54:54;12.80;54.70
78775;DHT22;68119;43.398;3.676;2023-04-03T07:57:22;12.90;53.90
78775;DHT22;68119;43.398;3.676;2023-04-03T07:59:56;12.90;53.70
78775;DHT22;68119;43.398;3.676;2023-04-03T08:02:24;13.00;53.90
78775;DHT22;68119;43.398;3.676;2023-04-03T08:04:50;13.10;53.60
78775;DHT22;68119;43.398;3.676;2023-04-03T08:07:19;13.10;53.10
78775;DHT22;68119;43.398;3.676;2023-04-03T08:09:45;13.20;53.20
78775;DHT22;68119;43.398;3.676;2023-04-03T08:12:10;13.30;52.70
78775;DHT22;68119;43.398;3.676;2023-04-03T08:14:41;13.30;53.00
78775;DHT22;68119;43.398;3.676;2023-04-03T08:17:12;13.40;52.70
78775;DHT22;68119;43.398;3.676;2023-04-03T08:19:46;13.50;52.60
78775;DHT22;68119;43.398;3.676;2023-04-03T08:22:20;13.70;52.10
78775;DHT22;68119;43.398;3.676;2023-04-03T08:24:49;13.90;52.00
78775;DHT22;68119;43.398;3.676;2023-04-03T08:27:20;13.90;51.60
78775;DHT22;68119;43.398;3.676;2023-04-03T08:29:46;13.80;51.50
78775;DHT22;68119;43.398;3.676;2023-04-03T08:32:18;13.90;51.20
78775;DHT22;68119;43.398;3.676;2023-04-03T08:34:51;14.20;51.10
78775;DHT22;68119;43.398;3.676;2023-04-03T08:37:22;14.30;50.90
78775;DHT22;68119;43.398;3.676;2023-04-03T08:39:54;14.20;51.10
78775;DHT22;68119;43.398;3.676;2023-04-03T08:45:08;14.20;50.40
78775;DHT22;68119;43.398;3.676;2023-04-03T08:47:50;14.40;50.50
78775;DHT22;68119;43.398;3.676;2023-04-03T08:50:30;14.60;50.40
78775;DHT22;68119;43.398;3.676;2023-04-03T08:53:05;14.70;49.40
78775;DHT22;68119;43.398;3.676;2023-04-03T08:55:49;14.90;49.20
78775;DHT22;68119;43.398;3.676;2023-04-03T08:58:19;15.00;49.70
78775;DHT22;68119;43.398;3.676;2023-04-03T09:01:18;14.80;50.00
78775;DHT22;68119;43.398;3.676;2023-04-03T09:03:48;14.70;50.20
78775;DHT22;68119;43.398;3.676;2023-04-03T09:06:23;14.60;50.30
78775;DHT22;68119;43.398;3.676;2023-04-03T09:11:51;14.50;50.10
78775;DHT22;68119;43.398;3.676;2023-04-03T09:15:24;14.60;50.50
78775;DHT22;68119;43.398;3.676;2023-04-03T09:26:30;14.70;49.40
78775;DHT22;68119;43.398;3.676;2023-04-03T09:29:02;14.80;49.30
78775;DHT22;68119;43.398;3.676;2023-04-03T09:31:37;14.90;49.40
78775;DHT22;68119;43.398;3.676;2023-04-03T09:34:27;15.10;48.90
78775;DHT22;68119;43.398;3.676;2023-04-03T09:36:58;15.30;48.50
78775;DHT22;68119;43.398;3.676;2023-04-03T09:39:33;15.20;48.90
78775;DHT22;68119;43.398;3.676;2023-04-03T09:42:24;15.70;48.40
78775;DHT22;68119;43.398;3.676;2023-04-03T09:44:57;15.60;47.70
78775;DHT22;68119;43.398;3.676;2023-04-03T09:47:31;15.60;47.90
78775;DHT22;68119;43.398;3.676;2023-04-03T09:52:49;15.90;47.10
78775;DHT22;68119;43.398;3.676;2023-04-03T09:57:49;15.60;47.40
78775;DHT22;68119;43.398;3.676;2023-04-03T10:00:26;15.90;47.20
78775;DHT22;68119;43.398;3.676;2023-04-03T10:02:56;16.00;46.90
78775;DHT22;68119;43.398;3.676;2023-04-03T10:10:45;16.40;46.20
78775;DHT22;68119;43.398;3.676;2023-04-03T10:13:18;16.70;46.30
78775;DHT22;68119;43.398;3.676;2023-04-03T10:16:01;16.50;46.20
78775;DHT22;68119;43.398;3.676;2023-04-03T10:21:19;16.70;46.10
78775;DHT22;68119;43.398;3.676;2023-04-03T10:23:57;16.40;45.80
78775;DHT22;68119;43.398;3.676;2023-04-03T10:32:58;16.40;46.40
78775;DHT22;68119;43.398;3.676;2023-04-03T10:43:33;16.70;45.80
78775;DHT22;68119;43.398;3.676;2023-04-03T10:49:31;16.80;45.50
78775;DHT22;68119;43.398;3.676;2023-04-03T10:52:14;16.60;45.20
78775;DHT22;68119;43.398;3.676;2023-04-03T10:55:08;16.90;45.00
78775;DHT22;68119;43.398;3.676;2023-04-03T10:57:37;17.00;44.90
78775;DHT22;68119;43.398;3.676;2023-04-03T11:00:39;16.60;45.50
78775;DHT22;68119;43.398;3.676;2023-04-03T11:05:50;16.70;45.80
78775;DHT22;68119;43.398;3.676;2023-04-03T11:10:53;18.00;43.60
78775;DHT22;68119;43.398;3.676;2023-04-03T11:13:34;17.60;44.40
78775;DHT22;68119;43.398;3.676;2023-04-03T11:16:05;18.30;44.00
78775;DHT22;68119;43.398;3.676;2023-04-03T12:10:33;24.80;35.30
78775;DHT22;68119;43.398;3.676;2023-04-03T12:13:15;21.80;38.60
78775;DHT22;68119;43.398;3.676;2023-04-03T12:15:47;20.30;39.80
78775;DHT22;68119;43.398;3.676;2023-04-03T12:21:08;21.00;39.80
78775;DHT22;68119;43.398;3.676;2023-04-03T12:23:55;20.30;40.50
78775;DHT22;68119;43.398;3.676;2023-04-03T12:35:09;19.50;42.00
78775;DHT22;68119;43.398;3.676;2023-04-03T12:40:51;20.00;41.70
78775;DHT22;68119;43.398;3.676;2023-04-03T12:46:24;18.80;42.90
78775;DHT22;68119;43.398;3.676;2023-04-03T12:48:58;18.50;42.80
78775;DHT22;68119;43.398;3.676;2023-04-03T12:51:42;18.60;43.20
78775;DHT22;68119;43.398;3.676;2023-04-03T12:54:27;19.90;41.60
78775;DHT22;68119;43.398;3.676;2023-04-03T12:59:43;18.30;43.40
78775;DHT22;68119;43.398;3.676;2023-04-03T13:02:31;18.20;43.80
78775;DHT22;68119;43.398;3.676;2023-04-03T13:05:06;18.10;44.20
78775;DHT22;68119;43.398;3.676;2023-04-03T13:07:37;18.50;43.30
78775;DHT22;68119;43.398;3.676;2023-04-03T13:10:22;20.30;40.80
78775;DHT22;68119;43.398;3.676;2023-04-03T13:13:14;19.50;42.20
78775;DHT22;68119;43.398;3.676;2023-04-03T13:15:46;19.70;42.50
78775;DHT22;68119;43.398;3.676;2023-04-03T13:18:36;22.40;40.20
78775;DHT22;68119;43.398;3.676;2023-04-03T13:21:06;21.00;40.60
78775;DHT22;68119;43.398;3.676;2023-04-03T13:23:36;19.70;42.40
78775;DHT22;68119;43.398;3.676;2023-04-03T13:26:04;19.40;42.80
78775;DHT22;68119;43.398;3.676;2023-04-03T13:28:34;18.90;44.00
78775;DHT22;68119;43.398;3.676;2023-04-03T13:31:22;18.80;43.90
78775;DHT22;68119;43.398;3.676;2023-04-03T13:33:56;20.70;41.70
78775;DHT22;68119;43.398;3.676;2023-04-03T13:36:38;20.30;41.80
78775;DHT22;68119;43.398;3.676;2023-04-03T14:12:31;20.50;40.60
78775;DHT22;68119;43.398;3.676;2023-04-03T14:15:02;21.10;40.10
78775;DHT22;68119;43.398;3.676;2023-04-03T14:42:36;20.80;40.40
78775;DHT22;68119;43.398;3.676;2023-04-03T14:45:05;20.50;40.40
78775;DHT22;68119;43.398;3.676;2023-04-03T14:47:32;19.90;41.00
78775;DHT22;68119;43.398;3.676;2023-04-03T14:50:02;19.50;42.20
78775;DHT22;68119;43.398;3.676;2023-04-03T14:52:32;20.00;41.40
78775;DHT22;68119;43.398;3.676;2023-04-03T14:55:07;24.20;37.50
78775;DHT22;68119;43.398;3.676;2023-04-03T15:17:53;-46.60;26.70
78775;DHT22;68119;43.398;3.676;2023-04-03T15:20:24;19.10;42.30
78775;DHT22;68119;43.398;3.676;2023-04-03T15:22:53;18.80;42.50
78775;DHT22;68119;43.398;3.676;2023-04-03T15:25:23;18.60;43.20
78775;DHT22;68119;43.398;3.676;2023-04-03T15:27:58;18.60;43.60
78775;DHT22;68119;43.398;3.676;2023-04-03T15:30:25;18.50;44.10
78775;DHT22;68119;43.398;3.676;2023-04-03T15:32:51;18.40;44.50
78775;DHT22;68119;43.398;3.676;2023-04-03T15:35:22;18.20;45.00
78775;DHT22;68119;43.398;3.676;2023-04-03T15:37:51;18.00;45.40
78775;DHT22;68119;43.398;3.676;2023-04-03T15:40:22;17.80;45.50
78775;DHT22;68119;43.398;3.676;2023-04-03T15:42:54;17.80;45.50
78775;DHT22;68119;43.398;3.676;2023-04-03T15:45:22;18.00;44.80
78775;DHT22;68119;43.398;3.676;2023-04-03T15:47:48;18.10;44.40
78775;DHT22;68119;43.398;3.676;2023-04-03T15:50:25;17.90;44.50
78775;DHT22;68119;43.398;3.676;2023-04-03T15:52:53;17.80;45.20
78775;DHT22;68119;43.398;3.676;2023-04-03T15:55:29;17.50;46.10
78775;DHT22;68119;43.398;3.676;2023-04-03T15:57:58;17.40;46.50
78775;DHT22;68119;43.398;3.676;2023-04-03T16:00:27;17.40;46.10
78775;DHT22;68119;43.398;3.676;2023-04-03T16:03:02;17.40;45.80
78775;DHT22;68119;43.398;3.676;2023-04-03T16:05:30;17.20;46.30
78775;DHT22;68119;43.398;3.676;2023-04-03T16:08:02;17.20;44.80
78775;DHT22;68119;43.398;3.676;2023-04-03T16:10:29;17.00;45.00
78775;DHT22;68119;43.398;3.676;2023-04-03T16:12:59;17.00;45.30
78775;DHT22;68119;43.398;3.676;2023-04-03T16:15:29;17.10;45.40
78775;DHT22;68119;43.398;3.676;2023-04-03T16:18:01;17.00;46.30
78775;DHT22;68119;43.398;3.676;2023-04-03T16:20:27;17.00;45.50
78775;DHT22;68119;43.398;3.676;2023-04-03T16:22:59;16.90;46.00
78775;DHT22;68119;43.398;3.676;2023-04-03T16:25:29;16.80;46.90
78775;DHT22;68119;43.398;3.676;2023-04-03T16:28:03;16.70;48.90
78775;DHT22;68119;43.398;3.676;2023-04-03T16:30:45;16.40;48.20
78775;DHT22;68119;43.398;3.676;2023-04-03T16:33:12;16.60;46.30
78775;DHT22;68119;43.398;3.676;2023-04-03T16:35:44;16.90;46.60
78775;DHT22;68119;43.398;3.676;2023-04-03T16:38:15;17.10;44.20
78775;DHT22;68119;43.398;3.676;2023-04-03T16:40:46;17.80;43.70
78775;DHT22;68119;43.398;3.676;2023-04-03T16:43:19;18.60;42.60
78775;DHT22;68119;43.398;3.676;2023-04-03T16:45:47;19.60;41.60
78775;DHT22;68119;43.398;3.676;2023-04-03T16:48:18;20.00;40.60
78775;DHT22;68119;43.398;3.676;2023-04-03T16:50:52;20.00;39.10
78775;DHT22;68119;43.398;3.676;2023-04-03T16:53:21;19.90;38.90
78775;DHT22;68119;43.398;3.676;2023-04-03T16:55:52;20.00;39.10
78775;DHT22;68119;43.398;3.676;2023-04-03T16:58:23;20.00;39.00
78775;DHT22;68119;43.398;3.676;2023-04-03T17:00:51;19.40;39.80
78775;DHT22;68119;43.398;3.676;2023-04-03T17:03:21;19.70;39.60
78775;DHT22;68119;43.398;3.676;2023-04-03T17:05:50;19.70;39.60
78775;DHT22;68119;43.398;3.676;2023-04-03T17:08:23;19.50;39.90
78775;DHT22;68119;43.398;3.676;2023-04-03T17:10:54;19.30;40.00
78775;DHT22;68119;43.398;3.676;2023-04-03T17:13:22;18.90;40.60
78775;DHT22;68119;43.398;3.676;2023-04-03T17:15:51;18.50;40.80
78775;DHT22;68119;43.398;3.676;2023-04-03T17:18:19;18.40;40.50
78775;DHT22;68119;43.398;3.676;2023-04-03T17:20:47;18.10;41.20
78775;DHT22;68119;43.398;3.676;2023-04-03T17:23:24;18.10;40.80
78775;DHT22;68119;43.398;3.676;2023-04-03T17:26:02;18.20;41.00
78775;DHT22;68119;43.398;3.676;2023-04-03T17:28:28;17.90;40.80
78775;DHT22;68119;43.398;3.676;2023-04-03T17:31:03;17.50;41.40
78775;DHT22;68119;43.398;3.676;2023-04-03T17:33:34;17.40;41.70
78775;DHT22;68119;43.398;3.676;2023-04-03T17:36:02;17.40;41.70
78775;DHT22;68119;43.398;3.676;2023-04-03T17:38:35;17.40;41.60
78775;DHT22;68119;43.398;3.676;2023-04-03T17:41:11;17.20;41.80
78775;DHT22;68119;43.398;3.676;2023-04-03T17:43:40;17.10;42.20
78775;DHT22;68119;43.398;3.676;2023-04-03T17:46:10;17.00;42.10
78775;DHT22;68119;43.398;3.676;2023-04-03T17:48:37;16.70;42.90
78775;DHT22;68119;43.398;3.676;2023-04-03T17:51:11;16.50;42.70
78775;DHT22;68119;43.398;3.676;2023-04-03T17:53:38;16.70;43.50
78775;DHT22;68119;43.398;3.676;2023-04-03T17:56:09;16.10;43.40
78775;DHT22;68119;43.398;3.676;2023-04-03T18:16:16;14.90;45.10
78775;DHT22;68119;43.398;3.676;2023-04-03T18:18:49;14.60;45.50
78775;DHT22;68119;43.398;3.676;2023-04-03T18:21:20;14.50;45.80
78775;DHT22;68119;43.398;3.676;2023-04-03T18:23:52;14.40;46.10
78775;DHT22;68119;43.398;3.676;2023-04-03T18:26:25;14.40;46.30
78775;DHT22;68119;43.398;3.676;2023-04-03T18:29:03;14.30;46.60
78775;DHT22;68119;43.398;3.676;2023-04-03T18:31:33;14.30;46.70
78775;DHT22;68119;43.398;3.676;2023-04-03T18:34:05;14.20;47.30
78775;DHT22;68119;43.398;3.676;2023-04-03T18:36:39;14.00;47.10
78775;DHT22;68119;43.398;3.676;2023-04-03T18:39:13;14.00;47.10
78775;DHT22;68119;43.398;3.676;2023-04-03T18:41:47;14.00;47.20
78775;DHT22;68119;43.398;3.676;2023-04-03T18:44:19;13.90;47.30
78775;DHT22;68119;43.398;3.676;2023-04-03T18:46:50;13.90;47.20
78775;DHT22;68119;43.398;3.676;2023-04-03T18:49:25;13.80;47.10
78775;DHT22;68119;43.398;3.676;2023-04-03T18:51:55;13.70;46.90
78775;DHT22;68119;43.398;3.676;2023-04-03T18:54:20;13.60;46.80
78775;DHT22;68119;43.398;3.676;2023-04-03T18:56:52;13.60;47.10
78775;DHT22;68119;43.398;3.676;2023-04-03T18:59:21;13.50;47.40
78775;DHT22;68119;43.398;3.676;2023-04-03T19:01:52;13.50;47.50
78775;DHT22;68119;43.398;3.676;2023-04-03T19:04:22;13.50;47.60
78775;DHT22;68119;43.398;3.676;2023-04-03T19:06:50;13.50;47.70
78775;DHT22;68119;43.398;3.676;2023-04-03T19:09:20;13.50;47.70
78775;DHT22;68119;43.398;3.676;2023-04-03T19:11:51;13.30;48.00
78775;DHT22;68119;43.398;3.676;2023-04-03T19:14:20;13.30;48.20
78775;DHT22;68119;43.398;3.676;2023-04-03T19:16:51;13.30;48.40
78775;DHT22;68119;43.398;3.676;2023-04-03T19:19:23;13.30;48.50
78775;DHT22;68119;43.398;3.676;2023-04-03T19:21:59;13.20;48.50
78775;DHT22;68119;43.398;3.676;2023-04-03T19:24:30;13.20;48.20
78775;DHT22;68119;43.398;3.676;2023-04-03T19:27:04;13.10;48.30
78775;DHT22;68119;43.398;3.676;2023-04-03T19:29:33;13.10;48.20
78775;DHT22;68119;43.398;3.676;2023-04-03T19:32:04;13.00;48.40
78775;DHT22;68119;43.398;3.676;2023-04-03T19:34:32;13.00;48.30
78775;DHT22;68119;43.398;3.676;2023-04-03T19:37:04;12.90;48.40
78775;DHT22;68119;43.398;3.676;2023-04-03T19:39:36;12.80;48.30
78775;DHT22;68119;43.398;3.676;2023-04-03T19:42:07;12.80;48.10
78775;DHT22;68119;43.398;3.676;2023-04-03T19:44:44;12.70;48.20
78775;DHT22;68119;43.398;3.676;2023-04-03T19:47:16;12.60;48.20
78775;DHT22;68119;43.398;3.676;2023-04-03T19:49:44;12.60;48.20
78775;DHT22;68119;43.398;3.676;2023-04-03T19:52:13;12.50;48.20
78775;DHT22;68119;43.398;3.676;2023-04-03T19:54:39;12.50;48.50
78775;DHT22;68119;43.398;3.676;2023-04-03T19:57:13;12.50;48.60
78775;DHT22;68119;43.398;3.676;2023-04-03T19:59:41;12.40;48.60
78775;DHT22;68119;43.398;3.676;2023-04-03T20:02:10;12.30;48.70
78775;DHT22;68119;43.398;3.676;2023-04-03T20:04:41;12.20;48.90
78775;DHT22;68119;43.398;3.676;2023-04-03T20:07:12;12.20;49.30
78775;DHT22;68119;43.398;3.676;2023-04-03T20:09:43;12.30;49.60
78775;DHT22;68119;43.398;3.676;2023-04-03T20:12:11;12.20;49.80
78775;DHT22;68119;43.398;3.676;2023-04-03T20:14:37;12.20;49.90
78775;DHT22;68119;43.398;3.676;2023-04-03T20:17:09;12.20;50.00
78775;DHT22;68119;43.398;3.676;2023-04-03T20:19:38;12.20;50.00
78775;DHT22;68119;43.398;3.676;2023-04-03T20:22:09;12.20;50.10
78775;DHT22;68119;43.398;3.676;2023-04-03T20:24:37;12.10;50.30
78775;DHT22;68119;43.398;3.676;2023-04-03T20:27:12;12.10;50.20
78775;DHT22;68119;43.398;3.676;2023-04-03T20:29:43;12.00;50.50
78775;DHT22;68119;43.398;3.676;2023-04-03T20:32:12;12.00;50.70
78775;DHT22;68119;43.398;3.676;2023-04-03T20:34:42;11.90;50.70
78775;DHT22;68119;43.398;3.676;2023-04-03T20:37:15;12.00;50.60
78775;DHT22;68119;43.398;3.676;2023-04-03T20:39:48;11.90;50.80
78775;DHT22;68119;43.398;3.676;2023-04-03T20:42:21;11.90;51.40
78775;DHT22;68119;43.398;3.676;2023-04-03T20:44:56;11.90;51.20
78775;DHT22;68119;43.398;3.676;2023-04-03T20:47:22;11.80;51.30
78775;DHT22;68119;43.398;3.676;2023-04-03T20:49:57;11.70;51.40
78775;DHT22;68119;43.398;3.676;2023-04-03T20:52:28;11.70;51.30
78775;DHT22;68119;43.398;3.676;2023-04-03T20:54:57;11.70;51.50
78775;DHT22;68119;43.398;3.676;2023-04-03T20:57:28;11.70;51.60